Time;durP1;ratioP1;P1;durP2;ratioP2;P2;SDS_P1;SDS_P2;PMS_P1;PMS_P2;Temp;Humidity;BMP_temperature;BMP_pressure;BME280_temperature;BME280_humidity;BME280_pressure;Samples;Min_cycle;Max_cycle;Signal;HPM_P1;HPM_P2
2021/03/16 00:01:01;;;;;;;2.43;0.70;;;7.70;99.90;;;;;;4901860;29;20218;-88
2021/03/16 00:03:32;;;;;;;1.07;0.80;;;7.60;99.90;;;;;;4902367;29;20209;-88
2021/03/16 00:06:04;;;;;;;1.60;0.73;;;7.50;99.90;;;;;;4897182;29;20219;-89
2021/03/16 00:08:35;;;;;;;2.83;0.60;;;7.30;99.90;;;;;;4909665;29;20753;-89
2021/03/16 00:11:09;;;;;;;1.47;0.70;;;7.40;99.90;;;;;;4894585;29;20221;-90
2021/03/16 00:13:41;;;;;;;1.90;0.70;;;7.50;99.90;;;;;;4885219;29;20251;-89
2021/03/16 00:16:13;;;;;;;1.90;0.80;;;7.50;99.90;;;;;;4888337;29;20208;-89
2021/03/16 00:18:44;;;;;;;2.00;0.63;;;7.40;99.90;;;;;;4891161;29;20204;-88
2021/03/16 00:21:15;;;;;;;2.27;0.70;;;7.40;99.90;;;;;;4918356;29;20209;-90
2021/03/16 00:23:46;;;;;;;3.60;0.87;;;7.20;99.90;;;;;;4908463;29;20217;-89
2021/03/16 00:26:16;;;;;;;2.37;0.70;;;7.30;99.90;;;;;;4893048;29;20243;-89
2021/03/16 00:28:49;;;;;;;2.43;1.10;;;7.40;99.90;;;;;;4900921;29;20241;-89
2021/03/16 00:31:20;;;;;;;1.20;0.70;;;7.40;99.90;;;;;;4888741;29;20284;-89
2021/03/16 00:33:51;;;;;;;1.10;0.80;;;7.40;99.90;;;;;;4913161;29;20273;-89
2021/03/16 00:36:21;;;;;;;3.17;0.90;;;7.40;99.90;;;;;;4892508;29;20252;-90
2021/03/16 00:38:54;;;;;;;3.53;1.10;;;7.40;99.90;;;;;;4896174;29;20674;-90
2021/03/16 00:41:27;;;;;;;2.13;0.70;;;7.40;99.90;;;;;;4884426;29;20213;-89
2021/03/16 00:43:59;;;;;;;3.23;1.00;;;7.30;99.90;;;;;;4884825;29;20624;-89
2021/03/16 00:50:14;;;;;;;1.03;0.93;;;7.20;99.90;;;;;;4881789;29;20190;-89
2021/03/16 00:53:08;;;;;;;2.60;0.70;;;7.20;99.90;;;;;;4913463;29;20197;-89
2021/03/16 00:55:39;;;;;;;1.90;0.53;;;7.10;99.90;;;;;;4914021;29;20194;-89
2021/03/16 00:58:13;;;;;;;1.33;0.50;;;7.00;99.90;;;;;;4907229;29;20273;-90
2021/03/16 01:00:45;;;;;;;2.67;0.90;;;7.00;99.90;;;;;;4906425;29;20215;-89
2021/03/16 01:03:16;;;;;;;4.83;0.70;;;6.80;99.90;;;;;;4904327;29;20292;-89
2021/03/16 01:05:46;;;;;;;3.43;1.30;;;6.80;99.90;;;;;;4904242;29;20216;-89
2021/03/16 01:08:18;;;;;;;2.63;0.93;;;6.90;99.90;;;;;;4915751;29;20639;-88
2021/03/16 01:10:50;;;;;;;2.47;0.90;;;6.90;99.90;;;;;;4910433;29;20214;-90
2021/03/16 01:13:21;;;;;;;3.90;0.90;;;7.00;99.90;;;;;;4902188;29;20239;-89
2021/03/16 01:15:53;;;;;;;2.10;0.77;;;6.90;99.90;;;;;;4914954;29;20265;-89
2021/03/16 01:18:24;;;;;;;3.60;0.87;;;6.90;99.90;;;;;;4907490;29;20256;-89
2021/03/16 01:20:55;;;;;;;2.33;0.70;;;6.90;99.90;;;;;;4922221;29;20210;-90
2021/03/16 01:23:26;;;;;;;3.20;1.07;;;6.90;99.90;;;;;;4919820;29;20260;-90
2021/03/16 01:26:25;;;;;;;3.53;1.00;;;6.90;99.90;;;;;;4919719;29;20237;-88
2021/03/16 01:28:56;;;;;;;3.40;1.10;;;6.90;99.90;;;;;;4884143;29;20280;-89
2021/03/16 01:31:28;;;;;;;2.20;0.97;;;7.00;99.90;;;;;;4883382;29;20246;-88
2021/03/16 01:34:03;;;;;;;3.73;1.00;;;7.00;99.90;;;;;;4900957;29;20205;-87
2021/03/16 01:36:34;;;;;;;2.60;0.80;;;7.00;99.90;;;;;;4901895;29;20213;-88
2021/03/16 01:39:06;;;;;;;2.03;0.53;;;7.00;99.90;;;;;;4903383;29;20204;-87
2021/03/16 01:41:36;;;;;;;1.60;0.87;;;7.00;99.90;;;;;;4908961;29;20208;-89
2021/03/16 01:44:07;;;;;;;1.43;0.70;;;7.00;99.90;;;;;;4880931;29;20218;-87
2021/03/16 01:46:39;;;;;;;2.67;0.80;;;7.00;99.90;;;;;;4881170;29;20247;-88
2021/03/16 01:49:11;;;;;;;3.33;0.90;;;7.00;99.90;;;;;;4881499;29;20233;-88
2021/03/16 01:51:42;;;;;;;5.20;1.17;;;7.00;99.90;;;;;;4897154;29;20209;-88
2021/03/16 01:54:14;;;;;;;4.03;1.10;;;6.90;99.90;;;;;;4898322;29;20738;-89
2021/03/16 01:56:47;;;;;;;2.30;0.93;;;6.90;99.90;;;;;;4899669;29;20213;-92
2021/03/16 01:59:21;;;;;;;3.23;1.10;;;6.90;99.90;;;;;;4907163;29;20213;-89
2021/03/16 02:01:53;;;;;;;4.17;1.00;;;6.90;99.90;;;;;;4924368;29;20219;-89
2021/03/16 02:04:25;;;;;;;2.73;1.07;;;6.90;99.90;;;;;;4900323;29;20210;-88
2021/03/16 02:07:01;;;;;;;4.87;1.00;;;6.90;99.90;;;;;;4899368;29;20221;-90
2021/03/16 02:09:39;;;;;;;3.77;0.93;;;6.80;99.90;;;;;;4899876;29;20231;-88
2021/03/16 02:12:15;;;;;;;2.77;0.90;;;6.70;99.90;;;;;;4892821;29;20257;-88
2021/03/16 02:14:52;;;;;;;2.23;0.80;;;6.70;99.90;;;;;;4900296;29;20217;-88
2021/03/16 02:17:29;;;;;;;1.50;0.60;;;6.60;99.90;;;;;;4900259;29;20328;-88
2021/03/16 02:20:09;;;;;;;2.70;0.87;;;6.60;99.90;;;;;;4905196;29;20219;-88
2021/03/16 02:22:43;;;;;;;5.23;1.00;;;6.50;99.90;;;;;;4912430;29;20297;-89
2021/03/16 02:25:29;;;;;;;2.90;0.90;;;6.50;99.90;;;;;;4924247;29;20228;-96
2021/03/16 02:28:27;;;;;;;1.43;0.77;;;6.40;99.90;;;;;;4900967;29;20225;-89
2021/03/16 02:31:01;;;;;;;3.60;0.83;;;6.30;99.90;;;;;;4907950;29;20206;-89
2021/03/16 02:33:46;;;;;;;2.67;0.90;;;6.30;99.90;;;;;;4908352;29;20263;-90
2021/03/16 02:36:17;;;;;;;1.77;0.90;;;6.20;99.90;;;;;;4906785;29;20209;-88
2021/03/16 02:39:00;;;;;;;1.90;1.00;;;6.20;99.90;;;;;;4910744;29;20209;-88
2021/03/16 02:41:32;;;;;;;1.53;0.90;;;6.10;99.90;;;;;;4923857;29;20207;-89
2021/03/16 02:44:04;;;;;;;3.47;1.00;;;6.10;99.90;;;;;;4910379;29;20213;-88
2021/03/16 02:46:40;;;;;;;2.00;1.03;;;6.00;99.90;;;;;;4914925;29;20708;-89
2021/03/16 02:49:11;;;;;;;1.40;1.10;;;6.00;99.90;;;;;;4900176;29;20229;-88
2021/03/16 02:51:42;;;;;;;2.10;1.17;;;5.90;99.90;;;;;;4902004;29;20297;-89
2021/03/16 02:54:15;;;;;;;1.63;0.80;;;5.90;99.90;;;;;;4901308;29;20228;-88
2021/03/16 02:56:46;;;;;;;2.30;1.10;;;5.90;99.90;;;;;;4894301;29;20213;-89
2021/03/16 02:59:18;;;;;;;2.03;1.10;;;5.90;99.90;;;;;;4924419;29;20217;-89
2021/03/16 03:01:52;;;;;;;3.47;1.20;;;5.80;99.90;;;;;;4925842;29;20263;-89
2021/03/16 03:04:25;;;;;;;3.10;1.30;;;5.70;99.90;;;;;;4903519;29;20219;-89
2021/03/16 03:06:56;;;;;;;2.90;1.53;;;5.70;99.90;;;;;;4914754;29;20190;-89
2021/03/16 03:09:28;;;;;;;2.67;1.47;;;5.60;99.90;;;;;;4929678;29;20222;-89
2021/03/16 03:11:59;;;;;;;2.83;1.30;;;5.60;99.90;;;;;;4917606;29;20194;-89
2021/03/16 03:14:29;;;;;;;4.77;1.40;;;5.50;99.90;;;;;;4918099;29;20289;-88
2021/03/16 03:17:02;;;;;;;3.57;1.40;;;5.40;99.90;;;;;;4914661;29;20220;-89
2021/03/16 03:19:33;;;;;;;4.73;2.07;;;5.40;99.90;;;;;;4908343;29;20209;-89
2021/03/16 03:22:12;;;;;;;2.73;1.57;;;5.30;99.90;;;;;;4915337;29;20684;-88
2021/03/16 03:24:48;;;;;;;3.27;1.80;;;5.20;99.90;;;;;;4910003;29;20375;-87
2021/03/16 03:27:35;;;;;;;6.53;2.27;;;5.10;99.90;;;;;;4907468;29;20644;-87
2021/03/16 03:30:08;;;;;;;7.83;3.27;;;5.00;99.90;;;;;;4912138;29;20213;-88
2021/03/16 03:32:42;;;;;;;5.70;3.30;;;4.90;99.90;;;;;;4925070;29;20210;-88
2021/03/16 03:35:15;;;;;;;4.87;2.80;;;4.80;99.90;;;;;;4913663;29;20213;-88
2021/03/16 03:37:49;;;;;;;3.57;2.77;;;4.70;99.90;;;;;;4917968;29;20201;-88
2021/03/16 03:40:22;;;;;;;3.13;2.17;;;4.70;99.90;;;;;;4920000;29;20277;-88
2021/03/16 03:43:06;;;;;;;4.83;2.33;;;4.60;99.90;;;;;;4921953;29;20201;-89
2021/03/16 03:45:37;;;;;;;3.33;2.23;;;4.50;99.90;;;;;;4916680;29;20201;-88
2021/03/16 03:48:17;;;;;;;3.50;1.67;;;4.50;99.90;;;;;;4908930;29;20233;-88
2021/03/16 03:50:53;;;;;;;2.93;1.90;;;4.40;99.90;;;;;;4894849;29;20238;-88
2021/03/16 03:53:24;;;;;;;3.60;1.90;;;4.40;99.90;;;;;;4892972;29;20210;-89
2021/03/16 03:55:59;;;;;;;3.63;2.07;;;4.30;99.90;;;;;;4894289;29;20210;-88
2021/03/16 03:58:30;;;;;;;4.23;2.67;;;4.20;99.90;;;;;;4902852;29;20217;-88
2021/03/16 04:01:04;;;;;;;4.43;3.13;;;4.10;99.90;;;;;;4908841;29;20261;-89
2021/03/16 04:03:37;;;;;;;3.70;3.30;;;4.00;99.90;;;;;;4920266;29;20205;-89
2021/03/16 04:06:08;;;;;;;8.27;3.63;;;3.90;99.90;;;;;;4906279;29;20212;-89
2021/03/16 04:08:42;;;;;;;4.87;2.53;;;3.90;99.90;;;;;;4883716;29;20281;-89
2021/03/16 04:11:13;;;;;;;2.37;2.13;;;3.80;99.90;;;;;;4899721;29;20241;-85
2021/03/16 04:13:43;;;;;;;4.37;2.10;;;3.70;99.90;;;;;;4896256;29;20240;-87
2021/03/16 04:16:14;;;;;;;4.70;2.10;;;3.70;99.90;;;;;;4545969;28;9999676;-88
2021/03/16 04:18:48;;;;;;;3.07;2.53;;;3.60;99.90;;;;;;4895574;29;20220;-87
2021/03/16 04:21:18;;;;;;;4.57;2.70;;;3.60;99.90;;;;;;4900602;29;20573;-88
2021/03/16 04:23:50;;;;;;;3.63;3.10;;;3.60;99.90;;;;;;4908474;29;20658;-87
2021/03/16 04:26:23;;;;;;;4.10;2.57;;;3.60;99.90;;;;;;4896999;29;20218;-88
2021/03/16 04:28:53;;;;;;;3.80;2.80;;;3.50;99.90;;;;;;4895186;29;20288;-88
2021/03/16 04:31:23;;;;;;;6.53;2.80;;;3.50;99.90;;;;;;4896394;29;20232;-87
2021/03/16 04:33:58;;;;;;;4.00;2.37;;;3.40;99.90;;;;;;4902347;29;20218;-88
2021/03/16 04:36:28;;;;;;;6.03;2.60;;;3.40;99.90;;;;;;4907114;29;20206;-87
2021/03/16 04:38:59;;;;;;;3.80;2.50;;;3.40;99.90;;;;;;4898828;29;20237;-85
2021/03/16 04:41:30;;;;;;;4.27;1.87;;;3.30;99.90;;;;;;4890988;29;20198;-87
2021/03/16 04:44:01;;;;;;;3.37;1.83;;;3.30;99.90;;;;;;4898137;29;20206;-85
2021/03/16 04:46:34;;;;;;;5.70;1.77;;;3.20;99.90;;;;;;4914725;29;20209;-88
2021/03/16 04:49:12;;;;;;;3.57;1.30;;;3.20;99.90;;;;;;4894484;29;20245;-89
2021/03/16 04:51:42;;;;;;;2.60;1.40;;;3.20;99.90;;;;;;4892827;29;20716;-88
2021/03/16 04:54:13;;;;;;;3.47;1.60;;;3.10;99.90;;;;;;4901217;29;20213;-89
2021/03/16 04:56:45;;;;;;;5.73;1.57;;;3.00;99.90;;;;;;4895762;29;20266;-87
2021/03/16 04:59:16;;;;;;;1.70;1.40;;;3.00;99.90;;;;;;4907395;29;20700;-88
2021/03/16 05:01:46;;;;;;;3.13;1.43;;;2.90;99.90;;;;;;4899800;29;20217;-90
2021/03/16 05:04:19;;;;;;;2.77;1.80;;;2.90;99.90;;;;;;4900609;29;20265;-89
2021/03/16 05:06:50;;;;;;;2.83;2.13;;;2.90;99.90;;;;;;4899591;29;20221;-88
2021/03/16 05:09:21;;;;;;;7.10;2.63;;;2.90;99.90;;;;;;4891902;29;20230;-88
2021/03/16 05:11:52;;;;;;;2.97;2.20;;;2.90;99.90;;;;;;4910224;29;20220;-89
2021/03/16 05:14:22;;;;;;;2.93;2.30;;;2.80;99.90;;;;;;4922206;29;20208;-89
2021/03/16 05:16:53;;;;;;;4.30;3.10;;;2.80;99.90;;;;;;4927191;29;20213;-90
2021/03/16 05:19:27;;;;;;;6.53;4.10;;;2.80;99.90;;;;;;4920725;29;20445;-89
2021/03/16 05:21:58;;;;;;;4.10;3.10;;;2.70;99.90;;;;;;4910342;29;20262;-89
2021/03/16 05:24:29;;;;;;;4.53;2.60;;;2.70;99.90;;;;;;4907374;29;20225;-89
2021/03/16 05:27:03;;;;;;;3.30;2.17;;;2.70;99.90;;;;;;4905726;29;20245;-89
2021/03/16 05:29:34;;;;;;;3.30;2.30;;;2.70;99.90;;;;;;4918670;29;20221;-89
2021/03/16 05:32:05;;;;;;;8.50;3.73;;;2.70;99.90;;;;;;4920302;29;20209;-88
2021/03/16 05:34:37;;;;;;;9.23;4.93;;;2.70;99.90;;;;;;4913344;29;20210;-89
2021/03/16 05:37:08;;;;;;;10.70;5.93;;;2.60;99.90;;;;;;4895497;29;20207;-89
2021/03/16 05:39:42;;;;;;;18.80;6.43;;;2.60;99.90;;;;;;4890034;29;20210;-88
2021/03/16 05:42:12;;;;;;;20.87;8.17;;;2.60;99.90;;;;;;4887930;29;20210;-89
2021/03/16 05:44:44;;;;;;;9.03;5.70;;;2.60;99.90;;;;;;4894120;29;20209;-89
2021/03/16 05:47:16;;;;;;;9.27;4.40;;;2.60;99.90;;;;;;4900402;29;20209;-88
2021/03/16 05:49:52;;;;;;;6.10;2.90;;;2.60;99.90;;;;;;4901404;29;20328;-89
2021/03/16 05:52:23;;;;;;;3.73;2.10;;;2.60;99.90;;;;;;4900094;29;20217;-88
2021/03/16 05:54:55;;;;;;;3.80;2.03;;;2.60;99.90;;;;;;4902149;29;20284;-88
2021/03/16 05:57:27;;;;;;;4.00;2.57;;;2.50;99.90;;;;;;4904723;29;20225;-88
2021/03/16 05:59:58;;;;;;;4.87;2.60;;;2.50;99.90;;;;;;4903951;29;20269;-89
2021/03/16 06:02:29;;;;;;;4.20;2.50;;;2.50;99.90;;;;;;4904789;29;20225;-89
2021/03/16 06:05:02;;;;;;;2.53;1.63;;;2.40;99.90;;;;;;4902924;29;20695;-90
2021/03/16 06:07:32;;;;;;;4.20;1.90;;;2.40;99.90;;;;;;4905943;29;20231;-89
2021/03/16 06:10:03;;;;;;;3.20;1.90;;;2.40;99.90;;;;;;4905091;29;20234;-90
2021/03/16 06:12:35;;;;;;;4.77;2.17;;;2.40;99.90;;;;;;4902810;29;20258;-89
2021/03/16 06:15:13;;;;;;;4.37;2.50;;;2.40;99.90;;;;;;4906770;29;20543;-90
2021/03/16 06:17:48;;;;;;;2.60;1.80;;;2.40;99.90;;;;;;4902442;29;20209;-90
2021/03/16 06:20:32;;;;;;;3.53;1.87;;;2.40;99.90;;;;;;4902879;29;20241;-89
2021/03/16 06:23:10;;;;;;;3.70;1.53;;;2.50;99.90;;;;;;4902341;29;20222;-90
2021/03/16 06:25:43;;;;;;;3.67;1.50;;;2.50;99.90;;;;;;4902859;29;20216;-89
2021/03/16 06:28:16;;;;;;;1.50;1.30;;;2.50;99.90;;;;;;4894000;29;20218;-89
2021/03/16 06:30:50;;;;;;;3.40;1.53;;;2.60;99.90;;;;;;4887965;29;20299;-89
2021/03/16 06:33:23;;;;;;;3.00;1.13;;;2.70;99.90;;;;;;4883835;29;20225;-89
2021/03/16 06:36:01;;;;;;;1.83;1.43;;;2.80;99.90;;;;;;4884179;29;20256;-89
2021/03/16 06:38:33;;;;;;;2.77;1.50;;;2.80;99.90;;;;;;4884498;29;20214;-89
2021/03/16 06:41:12;;;;;;;2.70;1.70;;;2.90;99.90;;;;;;4885127;29;20282;-89
2021/03/16 06:43:43;;;;;;;2.90;1.90;;;2.90;99.90;;;;;;4890271;29;20285;-90
2021/03/16 06:46:14;;;;;;;3.27;2.20;;;3.00;99.90;;;;;;4913400;29;20237;-90
2021/03/16 06:48:45;;;;;;;3.13;2.17;;;3.00;99.90;;;;;;4928117;29;20260;-89
2021/03/16 06:51:18;;;;;;;3.93;2.10;;;3.00;99.90;;;;;;4925472;29;20213;-88
2021/03/16 06:53:49;;;;;;;3.57;2.10;;;3.00;99.90;;;;;;4921208;29;20220;-88
2021/03/16 06:56:29;;;;;;;7.67;3.03;;;3.10;99.90;;;;;;4903366;29;20273;-87
2021/03/16 06:59:00;;;;;;;5.10;2.60;;;3.10;99.90;;;;;;4902566;29;20209;-89
2021/03/16 07:01:35;;;;;;;3.63;1.70;;;3.10;99.90;;;;;;4903194;29;20213;-87
2021/03/16 07:04:14;;;;;;;4.33;1.90;;;3.10;99.90;;;;;;4901787;29;20252;-89
2021/03/16 07:06:46;;;;;;;3.27;1.60;;;3.20;99.90;;;;;;4901914;29;20220;-88
2021/03/16 07:09:18;;;;;;;3.43;1.47;;;3.20;99.90;;;;;;4906536;29;20344;-89
2021/03/16 07:11:51;;;;;;;2.53;1.40;;;3.30;99.90;;;;;;4903675;29;20635;-88
2021/03/16 07:14:22;;;;;;;1.90;1.13;;;3.30;99.90;;;;;;4903671;29;20208;-88
2021/03/16 07:16:55;;;;;;;4.37;1.30;;;3.30;99.90;;;;;;4904819;29;20693;-88
2021/03/16 07:19:27;;;;;;;4.93;1.60;;;3.30;99.90;;;;;;4903603;29;20234;-89
2021/03/16 07:22:00;;;;;;;2.93;1.30;;;3.40;99.90;;;;;;4910242;29;20238;-88
2021/03/16 07:24:32;;;;;;;4.00;1.53;;;3.40;99.90;;;;;;4911408;29;20209;-88
2021/03/16 07:27:04;;;;;;;2.77;1.43;;;3.50;99.90;;;;;;4910933;29;20216;-88
2021/03/16 07:29:36;;;;;;;2.83;1.10;;;3.50;99.90;;;;;;4907763;29;20237;-90
2021/03/16 07:32:08;;;;;;;2.40;1.30;;;3.50;99.90;;;;;;4904141;29;20658;-88
2021/03/16 07:34:40;;;;;;;7.47;1.43;;;3.50;99.90;;;;;;4904951;29;20300;-89
2021/03/16 07:37:12;;;;;;;1.43;1.20;;;3.50;99.90;;;;;;4901270;29;20210;-88
2021/03/16 07:39:46;;;;;;;2.80;1.37;;;3.50;99.90;;;;;;4901997;29;20213;-87
2021/03/16 07:42:17;;;;;;;3.37;1.47;;;3.50;99.90;;;;;;4901573;29;20209;-87
2021/03/16 07:44:48;;;;;;;2.40;1.50;;;3.50;99.90;;;;;;4903735;29;20214;-88
2021/03/16 07:47:19;;;;;;;3.13;1.37;;;3.50;99.90;;;;;;4903739;29;20233;-88
2021/03/16 07:50:01;;;;;;;3.20;1.37;;;3.60;99.90;;;;;;4912628;29;20221;-88
2021/03/16 07:52:43;;;;;;;2.73;1.80;;;3.50;99.90;;;;;;4921315;29;20214;-88
2021/03/16 07:55:25;;;;;;;3.47;1.20;;;3.60;99.90;;;;;;4901597;29;20221;-88
2021/03/16 07:58:06;;;;;;;4.77;1.37;;;3.60;99.90;;;;;;4904493;29;20205;-88
2021/03/16 08:01:07;;;;;;;4.07;1.30;;;3.70;99.90;;;;;;4904829;29;20210;-88
2021/03/16 08:03:38;;;;;;;3.93;1.33;;;3.70;99.90;;;;;;4901944;29;20228;-88
2021/03/16 08:06:21;;;;;;;3.07;1.30;;;3.70;99.90;;;;;;4886346;29;20227;-88
2021/03/16 08:08:55;;;;;;;2.90;1.13;;;3.80;99.90;;;;;;4904240;29;20237;-89
2021/03/16 08:11:38;;;;;;;2.30;1.40;;;3.80;99.90;;;;;;4910347;29;20237;-89
2021/03/16 08:14:09;;;;;;;3.00;1.37;;;3.80;99.90;;;;;;4906227;29;20217;-88
2021/03/16 08:16:41;;;;;;;1.97;1.20;;;3.80;99.90;;;;;;4884641;29;20280;-92
2021/03/16 08:19:14;;;;;;;3.20;1.50;;;3.70;99.90;;;;;;4883171;29;20230;-89
2021/03/16 08:21:45;;;;;;;4.50;1.40;;;3.70;99.90;;;;;;4899863;29;20221;-89
2021/03/16 08:24:18;;;;;;;5.00;1.57;;;3.70;99.90;;;;;;4901457;29;20281;-89
2021/03/16 08:26:51;;;;;;;2.63;1.30;;;3.70;99.90;;;;;;4899504;29;20243;-89
2021/03/16 08:29:28;;;;;;;2.10;1.30;;;3.70;99.90;;;;;;4900068;29;20316;-89
2021/03/16 08:32:01;;;;;;;2.57;1.37;;;3.70;99.90;;;;;;4901210;29;20316;-89
2021/03/16 08:34:34;;;;;;;2.70;1.40;;;3.70;99.90;;;;;;4905312;29;20245;-88
2021/03/16 08:37:05;;;;;;;5.20;1.97;;;3.70;99.90;;;;;;4901227;29;20229;-89
2021/03/16 08:39:37;;;;;;;3.03;1.90;;;3.70;99.90;;;;;;4902973;29;20213;-88
2021/03/16 08:42:08;;;;;;;3.47;1.83;;;3.60;99.90;;;;;;4899824;29;20218;-88
2021/03/16 08:44:43;;;;;;;2.57;1.53;;;3.60;99.90;;;;;;4900915;29;20623;-88
2021/03/16 08:47:15;;;;;;;4.07;2.00;;;3.60;99.90;;;;;;4899637;29;20296;-89
2021/03/16 08:49:48;;;;;;;4.90;1.97;;;3.50;99.90;;;;;;4900150;29;20238;-89
2021/03/16 08:52:21;;;;;;;3.17;1.30;;;3.40;99.90;;;;;;4900169;29;20265;-89
2021/03/16 08:54:54;;;;;;;3.83;1.47;;;3.30;99.90;;;;;;4900055;29;20221;-88
2021/03/16 08:57:27;;;;;;;3.70;1.20;;;3.20;99.90;;;;;;4899325;29;20221;-89
2021/03/16 08:59:59;;;;;;;3.27;1.77;;;3.10;99.90;;;;;;4896581;29;20214;-88
2021/03/16 09:02:30;;;;;;;1.83;1.20;;;3.00;99.90;;;;;;4899611;29;20209;-87
2021/03/16 09:05:02;;;;;;;3.50;1.47;;;2.90;99.90;;;;;;4899296;29;20663;-89
2021/03/16 09:07:35;;;;;;;2.43;1.50;;;2.90;99.90;;;;;;4898815;29;20209;-88
2021/03/16 09:10:09;;;;;;;2.03;1.60;;;2.80;99.90;;;;;;4899880;29;20269;-88
2021/03/16 09:12:42;;;;;;;2.93;1.57;;;2.70;99.90;;;;;;4901520;29;20223;-90
2021/03/16 09:15:15;;;;;;;3.73;1.23;;;2.60;99.90;;;;;;4904739;29;20228;-89
2021/03/16 09:17:49;;;;;;;5.70;1.87;;;2.50;99.90;;;;;;4917423;29;20249;-88
2021/03/16 09:20:22;;;;;;;1.30;1.20;;;2.50;99.90;;;;;;4923399;29;20205;-88
2021/03/16 09:22:54;;;;;;;2.57;1.57;;;2.50;99.90;;;;;;4920514;29;20194;-89
2021/03/16 09:25:30;;;;;;;3.17;1.60;;;2.40;99.90;;;;;;4917767;29;20217;-88
2021/03/16 09:28:02;;;;;;;4.37;1.43;;;2.30;99.90;;;;;;4915759;29;20205;-89
2021/03/16 09:30:35;;;;;;;3.23;1.50;;;2.30;99.90;;;;;;4920135;29;20262;-89
2021/03/16 09:33:08;;;;;;;3.20;1.10;;;2.30;99.90;;;;;;4911075;29;20242;-88
2021/03/16 09:35:39;;;;;;;3.40;1.30;;;2.30;99.90;;;;;;4895602;29;20248;-89
2021/03/16 09:38:11;;;;;;;2.43;1.10;;;2.40;99.90;;;;;;4913514;29;20212;-89
2021/03/16 09:40:45;;;;;;;3.73;1.50;;;2.40;99.90;;;;;;4914099;29;20205;-89
2021/03/16 09:43:20;;;;;;;1.63;1.20;;;2.40;99.90;;;;;;4903503;29;20213;-89
2021/03/16 09:45:56;;;;;;;2.53;1.50;;;2.50;99.90;;;;;;4902838;29;20213;-89
2021/03/16 09:48:28;;;;;;;2.57;1.80;;;2.50;99.90;;;;;;4906735;29;20677;-90
2021/03/16 09:51:10;;;;;;;3.97;1.43;;;2.50;99.90;;;;;;4906305;29;20264;-90
2021/03/16 09:53:45;;;;;;;2.50;1.60;;;2.50;99.90;;;;;;4904265;29;20213;-89
2021/03/16 09:56:18;;;;;;;5.47;1.50;;;2.60;99.90;;;;;;4906808;29;20662;-89
2021/03/16 09:58:52;;;;;;;2.17;1.50;;;2.60;99.90;;;;;;4906383;29;20213;-89
2021/03/16 10:01:23;;;;;;;1.73;1.30;;;2.60;99.90;;;;;;4916961;29;20209;-89
2021/03/16 10:04:00;;;;;;;1.60;1.30;;;2.60;99.90;;;;;;4923292;29;20233;-88
2021/03/16 10:06:38;;;;;;;2.83;1.27;;;2.60;99.90;;;;;;4921088;29;20253;-89
2021/03/16 10:09:19;;;;;;;2.17;1.10;;;2.60;99.90;;;;;;4911307;29;20270;-89
2021/03/16 10:11:52;;;;;;;1.73;1.10;;;2.60;99.90;;;;;;4909280;29;20267;-88
2021/03/16 10:14:27;;;;;;;6.07;1.53;;;2.60;99.90;;;;;;4902278;29;20245;-88
2021/03/16 10:16:58;;;;;;;1.97;1.00;;;2.60;99.90;;;;;;4882754;29;20445;-89
2021/03/16 10:19:29;;;;;;;4.93;1.60;;;2.60;99.90;;;;;;4903886;29;20213;-89
2021/03/16 10:22:01;;;;;;;6.07;1.53;;;2.50;99.90;;;;;;4905830;29;20221;-90
2021/03/16 10:24:31;;;;;;;5.40;1.67;;;2.50;99.90;;;;;;4905025;29;20209;-89
2021/03/16 10:27:03;;;;;;;2.90;1.70;;;2.50;99.90;;;;;;4902564;29;20265;-89
2021/03/16 10:29:39;;;;;;;3.20;1.27;;;2.40;99.90;;;;;;4904868;29;20320;-89
2021/03/16 10:32:09;;;;;;;3.17;1.10;;;2.30;99.90;;;;;;4902721;29;20209;-88
2021/03/16 10:34:39;;;;;;;2.63;1.20;;;2.30;99.90;;;;;;4905488;29;20220;-89
2021/03/16 10:37:19;;;;;;;2.47;1.40;;;2.30;99.90;;;;;;4895090;29;20214;-89
2021/03/16 10:39:50;;;;;;;3.10;1.13;;;2.20;99.90;;;;;;4895487;29;20205;-89
2021/03/16 10:42:25;;;;;;;2.23;1.63;;;2.20;99.90;;;;;;4905713;29;20210;-90
2021/03/16 10:44:56;;;;;;;4.93;1.70;;;2.10;99.90;;;;;;4905242;29;20218;-90
2021/03/16 10:47:27;;;;;;;2.27;1.50;;;2.10;99.90;;;;;;4900543;29;20214;-89
2021/03/16 10:49:58;;;;;;;3.63;1.30;;;2.00;99.90;;;;;;4888895;29;20601;-90
2021/03/16 10:52:29;;;;;;;3.27;1.30;;;2.00;99.90;;;;;;4904782;29;20713;-90
2021/03/16 10:55:00;;;;;;;2.23;1.60;;;1.90;99.90;;;;;;4894680;29;20663;-90
2021/03/16 10:57:32;;;;;;;3.40;1.53;;;1.90;99.90;;;;;;4903154;29;20241;-90
2021/03/16 11:00:04;;;;;;;3.10;1.47;;;1.90;99.90;;;;;;4904908;29;20625;-91
2021/03/16 11:02:35;;;;;;;1.90;1.50;;;1.80;99.90;;;;;;4910109;29;20225;-91
2021/03/16 11:05:09;;;;;;;3.53;1.33;;;1.70;99.90;;;;;;4910960;29;20218;-89
2021/03/16 11:07:40;;;;;;;3.10;1.40;;;1.70;99.90;;;;;;4908936;29;20696;-89
2021/03/16 11:10:14;;;;;;;1.83;1.30;;;1.60;99.90;;;;;;4903134;29;20244;-89
2021/03/16 11:12:47;;;;;;;3.47;1.57;;;1.50;99.90;;;;;;4905562;29;20216;-90
2021/03/16 11:15:18;;;;;;;3.70;1.43;;;1.50;99.90;;;;;;4903629;29;20252;-90
2021/03/16 11:17:48;;;;;;;3.87;1.50;;;1.50;99.90;;;;;;4906920;29;20277;-90
2021/03/16 11:20:20;;;;;;;2.37;1.40;;;1.40;99.90;;;;;;4907117;29;20213;-90
2021/03/16 11:22:50;;;;;;;3.90;1.53;;;1.40;99.90;;;;;;4908896;29;20575;-90
2021/03/16 11:25:21;;;;;;;2.37;1.47;;;1.30;99.90;;;;;;4909457;29;20209;-89
2021/03/16 11:27:54;;;;;;;4.60;1.63;;;1.40;99.90;;;;;;4907182;29;20237;-89
2021/03/16 11:30:26;;;;;;;3.20;1.30;;;1.30;99.90;;;;;;4923967;29;20643;-90
2021/03/16 11:32:57;;;;;;;4.00;1.80;;;1.30;99.90;;;;;;4923548;29;20217;-88
2021/03/16 11:35:28;;;;;;;3.77;1.90;;;1.30;99.90;;;;;;4922212;29;20251;-90
2021/03/16 11:37:59;;;;;;;3.23;1.50;;;1.30;99.90;;;;;;4911879;29;20233;-89
2021/03/16 11:40:30;;;;;;;3.27;1.53;;;1.30;99.90;;;;;;4903568;29;20622;-90
2021/03/16 11:43:03;;;;;;;2.23;1.30;;;1.30;99.90;;;;;;4901395;29;20217;-89
2021/03/16 11:45:33;;;;;;;4.23;1.40;;;1.20;99.90;;;;;;4901984;29;20651;-89
2021/03/16 11:48:04;;;;;;;3.23;1.77;;;1.20;99.90;;;;;;4902637;29;20197;-90
2021/03/16 11:50:38;;;;;;;4.57;1.60;;;1.20;99.90;;;;;;4900095;29;20248;-90
2021/03/16 11:53:11;;;;;;;5.53;2.10;;;1.20;99.90;;;;;;4901890;29;20300;-90
2021/03/16 11:55:41;;;;;;;4.97;1.87;;;1.20;99.90;;;;;;4902079;29;20214;-90
2021/03/16 11:58:13;;;;;;;5.23;1.83;;;1.20;99.90;;;;;;4901411;29;20205;-91
2021/03/16 12:00:44;;;;;;;3.77;2.03;;;1.10;99.90;;;;;;4900879;29;20248;-91
2021/03/16 12:03:15;;;;;;;4.23;2.07;;;1.10;99.90;;;;;;4902085;29;20209;-90
2021/03/16 12:05:48;;;;;;;3.80;1.93;;;1.10;99.90;;;;;;4901445;29;20229;-91
2021/03/16 12:08:19;;;;;;;5.50;1.80;;;1.10;99.90;;;;;;4901681;29;20223;-90
2021/03/16 12:10:50;;;;;;;3.93;1.90;;;1.10;99.90;;;;;;4917517;29;20647;-91
2021/03/16 12:13:23;;;;;;;2.73;1.60;;;1.10;99.90;;;;;;4912931;29;20234;-90
2021/03/16 12:15:53;;;;;;;4.00;1.70;;;1.00;99.90;;;;;;4896168;29;20224;-91
2021/03/16 12:18:24;;;;;;;3.23;1.87;;;1.00;99.90;;;;;;4890597;29;20294;-91
2021/03/16 12:20:55;;;;;;;5.70;2.10;;;1.00;99.90;;;;;;4890875;29;20210;-91
2021/03/16 12:23:26;;;;;;;6.27;1.80;;;1.00;99.90;;;;;;4903234;29;20283;-91
2021/03/16 12:25:57;;;;;;;5.40;1.80;;;1.00;99.90;;;;;;4904616;29;20225;-91
2021/03/16 12:28:30;;;;;;;3.00;1.77;;;1.00;99.90;;;;;;4909889;29;20215;-92
2021/03/16 12:31:01;;;;;;;4.23;1.93;;;1.00;99.90;;;;;;4915753;29;20233;-90
2021/03/16 12:33:32;;;;;;;2.80;1.70;;;1.00;99.90;;;;;;4923894;29;20220;-90
2021/03/16 12:36:03;;;;;;;3.87;1.73;;;1.00;99.90;;;;;;4919444;29;20281;-90
2021/03/16 12:38:33;;;;;;;3.27;1.73;;;1.10;99.90;;;;;;4888597;29;20245;-90
2021/03/16 12:41:04;;;;;;;3.47;2.00;;;1.10;99.90;;;;;;4899677;29;20265;-90
2021/03/16 12:43:37;;;;;;;3.30;1.50;;;1.10;99.90;;;;;;4900851;29;20289;-90
2021/03/16 12:46:08;;;;;;;6.47;1.63;;;1.10;99.90;;;;;;4899571;29;20219;-90
2021/03/16 12:48:38;;;;;;;2.60;1.67;;;1.20;99.90;;;;;;4899502;29;20233;-90
2021/03/16 12:51:10;;;;;;;4.17;1.70;;;1.20;99.90;;;;;;4915832;29;20249;-90
2021/03/16 12:53:41;;;;;;;4.73;1.63;;;1.20;99.90;;;;;;4919658;29;20217;-89
2021/03/16 12:56:13;;;;;;;1.97;1.50;;;1.20;99.90;;;;;;4918448;29;20300;-89
2021/03/16 12:58:46;;;;;;;4.53;1.60;;;1.20;99.90;;;;;;4903239;29;20221;-90
2021/03/16 13:01:17;;;;;;;4.83;1.80;;;1.20;99.90;;;;;;4898625;29;20244;-90
2021/03/16 13:03:48;;;;;;;3.13;1.60;;;1.20;99.90;;;;;;4899779;29;20292;-91
2021/03/16 13:06:19;;;;;;;3.60;1.53;;;1.10;99.90;;;;;;4901260;29;20253;-90
2021/03/16 13:08:50;;;;;;;3.63;1.40;;;1.10;99.90;;;;;;4900802;29;20213;-91
2021/03/16 13:11:21;;;;;;;2.17;1.40;;;1.10;99.90;;;;;;4903607;29;20240;-91
2021/03/16 13:13:54;;;;;;;3.20;1.90;;;1.10;99.90;;;;;;4900458;29;20297;-92
2021/03/16 13:16:25;;;;;;;1.90;1.30;;;1.10;99.90;;;;;;4921542;29;20217;-90
2021/03/16 13:18:56;;;;;;;2.40;1.50;;;1.00;99.90;;;;;;4925683;29;20244;-90
2021/03/16 13:21:35;;;;;;;7.67;1.80;;;1.00;99.90;;;;;;4927524;29;20209;-90
2021/03/16 13:24:07;;;;;;;5.73;2.00;;;1.00;99.90;;;;;;4918555;29;20248;-89
2021/03/16 13:26:40;;;;;;;5.10;1.73;;;0.90;99.90;;;;;;4905670;29;20305;-91
2021/03/16 13:29:12;;;;;;;3.27;1.60;;;0.90;99.90;;;;;;4903592;29;20666;-90
2021/03/16 13:31:43;;;;;;;3.50;1.50;;;0.90;99.90;;;;;;4903696;29;20206;-90